Time;durP1;ratioP1;P1;durP2;ratioP2;P2;SDS_P1;SDS_P2;PMS_P1;PMS_P2;Temp;Humidity;BMP_temperature;BMP_pressure;BME280_temperature;BME280_humidity;BME280_pressure;Samples;Min_cycle;Max_cycle;Signal;HPM_P1;HPM_P2
2022/03/20 00:02:23;;;;;;;3.45;1.35;;;7.30;99.90;;;;;;5023132;28;20045;-59
2022/03/20 00:04:50;;;;;;;3.72;1.20;;;7.30;99.90;;;;;;5021582;28;20266;-58
2022/03/20 00:07:17;;;;;;;2.25;1.15;;;7.30;99.90;;;;;;5022354;28;20160;-57
2022/03/20 00:09:45;;;;;;;3.38;1.25;;;7.20;99.90;;;;;;5022934;28;20135;-58
2022/03/20 00:12:11;;;;;;;2.75;1.38;;;7.30;99.90;;;;;;5023703;28;20091;-58
2022/03/20 00:14:38;;;;;;;4.63;1.30;;;7.30;99.90;;;;;;5021148;28;20614;-58
2022/03/20 00:17:06;;;;;;;3.72;1.98;;;7.20;99.90;;;;;;5011842;28;20168;-59
2022/03/20 00:19:32;;;;;;;5.15;1.50;;;7.20;99.90;;;;;;5022113;28;20069;-59
2022/03/20 00:21:59;;;;;;;2.05;1.10;;;7.20;99.90;;;;;;5023032;28;20168;-56
2022/03/20 00:24:26;;;;;;;3.80;1.70;;;7.20;99.90;;;;;;5022623;28;20165;-58
2022/03/20 00:26:56;;;;;;;2.78;1.70;;;7.10;99.90;;;;;;5021675;28;20112;-58
2022/03/20 00:29:27;;;;;;;4.13;1.40;;;7.10;99.90;;;;;;5023719;28;20138;-59
2022/03/20 00:31:54;;;;;;;6.53;1.67;;;7.10;99.90;;;;;;5021512;28;20119;-58
2022/03/20 00:34:21;;;;;;;3.50;1.20;;;7.10;99.90;;;;;;5019395;28;20049;-58
2022/03/20 00:36:47;;;;;;;4.57;1.65;;;7.10;99.90;;;;;;5019421;28;20054;-57
2022/03/20 00:39:14;;;;;;;5.13;1.60;;;7.10;99.90;;;;;;5021734;28;20513;-58
2022/03/20 00:41:42;;;;;;;2.35;1.17;;;7.10;99.90;;;;;;5020945;28;20524;-58
2022/03/20 00:44:08;;;;;;;2.28;0.90;;;7.10;99.90;;;;;;5021909;28;20136;-58
2022/03/20 00:46:35;;;;;;;2.65;1.10;;;7.00;99.90;;;;;;5022534;28;20152;-58
2022/03/20 00:49:02;;;;;;;3.10;1.20;;;7.00;99.90;;;;;;5023375;28;20491;-59
2022/03/20 00:51:29;;;;;;;3.72;1.67;;;7.00;99.90;;;;;;5021561;28;20452;-58
2022/03/20 00:53:55;;;;;;;4.80;1.25;;;7.00;99.90;;;;;;5021192;28;20128;-58
2022/03/20 00:56:22;;;;;;;3.90;1.15;;;7.00;99.90;;;;;;5014533;28;20530;-58
2022/03/20 00:58:49;;;;;;;2.40;1.00;;;6.90;99.90;;;;;;5022726;28;20568;-58
2022/03/20 01:01:15;;;;;;;2.58;0.93;;;6.90;99.90;;;;;;5021746;28;20077;-58
2022/03/20 01:03:43;;;;;;;2.88;1.27;;;6.80;99.90;;;;;;5022263;28;20683;-58
2022/03/20 01:06:10;;;;;;;3.72;1.35;;;6.80;99.90;;;;;;5021206;28;20485;-58
2022/03/20 01:08:37;;;;;;;1.70;0.95;;;6.80;99.90;;;;;;5022860;28;20139;-58
2022/03/20 01:11:05;;;;;;;2.90;1.05;;;6.70;99.90;;;;;;5022053;28;20053;-59
2022/03/20 01:13:32;;;;;;;1.95;0.90;;;6.70;99.90;;;;;;5037876;28;20467;-58
2022/03/20 01:15:59;;;;;;;1.95;0.80;;;6.70;99.90;;;;;;5007358;28;20458;-59
2022/03/20 01:18:25;;;;;;;1.67;0.90;;;6.60;99.90;;;;;;5011766;28;20140;-58
2022/03/20 01:20:53;;;;;;;2.33;1.33;;;6.60;99.90;;;;;;5018498;28;20069;-58
2022/03/20 01:23:22;;;;;;;2.20;0.98;;;6.50;99.90;;;;;;5037579;28;20406;-58
2022/03/20 01:25:50;;;;;;;2.75;1.10;;;6.50;99.90;;;;;;5020551;28;20152;-59
2022/03/20 01:28:17;;;;;;;3.22;1.27;;;6.50;99.90;;;;;;5020764;28;20081;-58
2022/03/20 01:30:45;;;;;;;2.58;1.20;;;6.50;99.90;;;;;;5022083;28;20408;-58
2022/03/20 01:33:12;;;;;;;3.53;0.98;;;6.50;99.90;;;;;;5020385;28;20100;-58
2022/03/20 01:35:39;;;;;;;3.17;1.08;;;6.40;99.90;;;;;;5020307;28;20480;-58
2022/03/20 01:38:06;;;;;;;2.00;1.10;;;6.40;99.90;;;;;;5021730;28;20502;-59
2022/03/20 01:40:33;;;;;;;2.45;1.35;;;6.40;99.90;;;;;;5021064;28;20266;-58
2022/03/20 01:43:00;;;;;;;2.85;1.23;;;6.40;99.90;;;;;;5019884;28;20140;-59
2022/03/20 01:45:27;;;;;;;3.67;1.10;;;6.30;99.90;;;;;;5021923;28;20107;-58
2022/03/20 01:47:54;;;;;;;3.90;1.67;;;6.30;99.90;;;;;;5020932;28;20148;-59
2022/03/20 01:50:23;;;;;;;3.22;1.25;;;6.30;99.90;;;;;;5018784;28;20304;-59
2022/03/20 01:52:50;;;;;;;2.83;1.08;;;6.20;99.90;;;;;;5020329;28;20081;-58
2022/03/20 01:55:18;;;;;;;4.07;1.13;;;6.20;99.90;;;;;;5019885;28;20100;-58
2022/03/20 01:57:46;;;;;;;5.70;1.25;;;6.20;99.90;;;;;;5020504;28;20069;-58
2022/03/20 02:00:14;;;;;;;1.92;1.10;;;6.10;99.90;;;;;;5019686;28;20053;-59
2022/03/20 02:02:41;;;;;;;2.45;1.55;;;6.10;99.90;;;;;;5019917;28;20046;-59
2022/03/20 02:05:09;;;;;;;1.80;0.88;;;6.00;99.90;;;;;;5020361;28;20057;-59
2022/03/20 02:07:40;;;;;;;2.40;1.25;;;6.00;99.90;;;;;;5020445;28;20140;-59
2022/03/20 02:10:07;;;;;;;1.98;0.93;;;6.00;99.90;;;;;;5019538;28;20152;-58
2022/03/20 02:12:35;;;;;;;2.10;0.95;;;6.00;99.90;;;;;;5021138;28;20085;-58
2022/03/20 02:15:02;;;;;;;3.75;0.98;;;5.90;99.90;;;;;;5020592;28;20081;-58
2022/03/20 02:17:30;;;;;;;2.45;1.05;;;5.90;99.90;;;;;;5003380;28;20073;-59
2022/03/20 02:19:57;;;;;;;2.22;1.10;;;5.90;99.90;;;;;;5020719;28;20053;-59
2022/03/20 02:22:24;;;;;;;2.78;0.90;;;5.90;99.90;;;;;;5021013;28;20156;-58
2022/03/20 02:24:51;;;;;;;3.63;1.13;;;5.80;99.90;;;;;;5020050;28;20152;-58
2022/03/20 02:27:19;;;;;;;1.90;1.10;;;5.90;99.90;;;;;;5021344;28;20128;-58
2022/03/20 02:29:57;;;;;;;3.75;1.10;;;5.80;99.90;;;;;;5023024;28;20204;-58
2022/03/20 02:32:27;;;;;;;4.45;1.10;;;5.80;99.90;;;;;;5023152;28;20663;-58
2022/03/20 02:34:59;;;;;;;5.38;1.45;;;5.80;99.90;;;;;;5024656;28;20053;-58
2022/03/20 02:37:26;;;;;;;2.92;1.25;;;5.80;99.90;;;;;;5023925;28;20052;-58
2022/03/20 02:39:55;;;;;;;3.97;1.35;;;5.80;99.90;;;;;;5008960;28;20057;-58
2022/03/20 02:42:23;;;;;;;4.60;2.13;;;5.80;99.90;;;;;;5027635;28;20144;-58
2022/03/20 02:44:52;;;;;;;3.33;1.30;;;5.80;99.90;;;;;;5026359;28;20212;-58
2022/03/20 02:47:23;;;;;;;3.15;1.20;;;5.70;99.90;;;;;;5027080;28;20057;-58
2022/03/20 02:49:53;;;;;;;7.07;1.55;;;5.80;99.90;;;;;;5024690;28;20507;-58
2022/03/20 02:52:28;;;;;;;3.53;1.20;;;5.70;99.90;;;;;;5026400;28;20062;-58
2022/03/20 02:55:02;;;;;;;3.90;1.95;;;5.80;99.90;;;;;;5022545;28;20115;-58
2022/03/20 02:57:32;;;;;;;3.97;1.35;;;5.70;99.90;;;;;;5025089;28;20092;-58
2022/03/20 03:00:00;;;;;;;3.83;1.23;;;5.70;99.90;;;;;;5041122;28;20220;-58
2022/03/20 03:02:30;;;;;;;3.67;1.00;;;5.70;99.90;;;;;;5026505;28;20052;-58
2022/03/20 03:04:59;;;;;;;1.63;1.02;;;5.70;99.90;;;;;;5025183;28;20413;-58
2022/03/20 03:07:29;;;;;;;3.22;1.02;;;5.70;99.90;;;;;;5018033;28;20046;-58
2022/03/20 03:12:42;;;;;;;2.58;1.02;;;5.70;99.90;;;;;;5026715;28;20274;-58
2022/03/20 03:15:21;;;;;;;2.53;0.85;;;5.60;99.90;;;;;;5025533;28;20093;-58
2022/03/20 03:17:48;;;;;;;3.55;1.27;;;5.60;99.90;;;;;;5026060;28;20057;-58
2022/03/20 03:20:17;;;;;;;2.83;1.10;;;5.50;99.90;;;;;;5025272;28;20098;-58
2022/03/20 03:22:43;;;;;;;7.15;1.60;;;5.40;99.90;;;;;;5026307;28;20046;-59
2022/03/20 03:25:10;;;;;;;2.47;1.05;;;5.40;99.90;;;;;;5020988;28;20133;-58
2022/03/20 03:27:37;;;;;;;3.13;1.17;;;5.30;99.90;;;;;;5026226;28;20964;-58
2022/03/20 03:30:04;;;;;;;2.30;0.93;;;5.30;99.90;;;;;;5024786;28;20065;-58
2022/03/20 03:32:31;;;;;;;2.33;0.90;;;5.20;99.90;;;;;;5023757;28;20057;-58
2022/03/20 03:37:43;;;;;;;2.50;0.90;;;5.10;99.90;;;;;;5025727;28;20392;-58
2022/03/20 03:40:10;;;;;;;2.75;1.00;;;5.00;99.90;;;;;;5024536;28;20128;-58
2022/03/20 03:42:37;;;;;;;1.80;1.02;;;5.00;99.90;;;;;;5026337;28;20949;-58
2022/03/20 03:45:04;;;;;;;2.03;1.10;;;4.90;99.90;;;;;;5025059;28;20085;-58
2022/03/20 03:47:31;;;;;;;2.58;0.90;;;4.90;99.90;;;;;;5025261;28;20149;-58
2022/03/20 03:49:57;;;;;;;4.32;2.05;;;4.90;99.90;;;;;;5023617;28;20077;-58
2022/03/20 03:52:24;;;;;;;2.35;0.88;;;4.80;99.90;;;;;;5025592;28;20050;-58
2022/03/20 03:54:51;;;;;;;3.30;0.88;;;4.80;99.90;;;;;;5024566;28;20095;-59
2022/03/20 03:57:19;;;;;;;1.85;0.95;;;4.70;99.90;;;;;;5023786;28;20149;-58
2022/03/20 03:59:46;;;;;;;2.10;1.15;;;4.70;99.90;;;;;;5023945;28;20503;-58
2022/03/20 04:02:13;;;;;;;1.95;0.98;;;4.70;99.90;;;;;;5026127;28;20136;-58
2022/03/20 04:04:41;;;;;;;1.73;0.77;;;4.70;99.90;;;;;;5024170;28;20068;-59
2022/03/20 04:07:08;;;;;;;1.92;0.80;;;4.60;99.90;;;;;;5024945;28;20080;-58
2022/03/20 04:09:35;;;;;;;1.98;0.90;;;4.60;99.90;;;;;;5023339;28;20087;-58
2022/03/20 04:12:03;;;;;;;2.88;1.05;;;4.60;99.90;;;;;;5004232;28;20451;-58
2022/03/20 04:14:31;;;;;;;2.17;0.85;;;4.60;99.90;;;;;;5017774;28;20085;-58
2022/03/20 04:16:58;;;;;;;2.90;1.10;;;4.50;99.90;;;;;;5025496;28;20107;-58
2022/03/20 04:19:25;;;;;;;1.13;0.80;;;4.50;99.90;;;;;;5024329;28;20528;-58
2022/03/20 04:21:52;;;;;;;1.52;0.80;;;4.50;99.90;;;;;;5024448;28;20077;-58
2022/03/20 04:24:19;;;;;;;2.22;0.90;;;4.50;99.90;;;;;;5024871;28;20056;-58
2022/03/20 04:26:46;;;;;;;3.90;1.02;;;4.50;99.90;;;;;;5025711;28;20050;-59
2022/03/20 04:29:13;;;;;;;2.30;0.88;;;4.50;99.90;;;;;;5025223;28;20057;-59
2022/03/20 04:31:40;;;;;;;1.60;1.00;;;4.50;99.90;;;;;;5025216;28;20144;-58
2022/03/20 04:34:07;;;;;;;3.28;0.85;;;4.40;99.90;;;;;;5024618;28;20349;-58
2022/03/20 04:36:37;;;;;;;2.05;1.02;;;4.40;99.90;;;;;;5022771;28;20073;-58
2022/03/20 04:39:03;;;;;;;1.52;0.90;;;4.30;99.90;;;;;;5023864;28;20473;-59
2022/03/20 04:41:30;;;;;;;1.92;1.15;;;4.30;99.90;;;;;;5024434;28;20050;-59
2022/03/20 04:43:58;;;;;;;3.20;1.20;;;4.20;99.90;;;;;;5023023;28;20080;-58
2022/03/20 04:46:24;;;;;;;2.55;1.08;;;4.10;99.90;;;;;;5024258;28;20133;-58
2022/03/20 04:59:53;;;;;;;2.10;1.05;;;4.00;99.90;;;;;;5026254;28;20099;-59
2022/03/20 05:02:20;;;;;;;1.88;0.88;;;4.10;99.90;;;;;;5026346;28;20117;-58
2022/03/20 05:04:47;;;;;;;2.28;0.88;;;4.10;99.90;;;;;;5024630;28;20054;-58
2022/03/20 05:07:14;;;;;;;1.90;1.40;;;4.00;99.90;;;;;;5026256;28;20120;-58
2022/03/20 05:15:12;;;;;;;1.92;1.20;;;4.00;99.90;;;;;;5021323;28;20077;-58
2022/03/20 05:17:39;;;;;;;1.27;0.82;;;4.00;99.90;;;;;;5026040;28;20128;-58
2022/03/20 05:20:06;;;;;;;1.92;1.10;;;4.00;99.90;;;;;;5024971;28;20081;-58
2022/03/20 05:22:36;;;;;;;2.72;1.10;;;3.90;99.90;;;;;;5025226;28;20080;-58
2022/03/20 05:25:05;;;;;;;2.17;0.90;;;3.90;99.90;;;;;;5023758;28;20469;-59
2022/03/20 05:27:31;;;;;;;2.08;1.00;;;3.90;99.90;;;;;;5024656;28;20514;-59
2022/03/20 05:30:05;;;;;;;3.40;1.10;;;3.80;99.90;;;;;;5025702;28;20049;-58
2022/03/20 05:32:32;;;;;;;2.05;1.20;;;3.70;99.90;;;;;;5024763;28;20069;-58
2022/03/20 05:34:59;;;;;;;2.50;1.35;;;3.70;99.90;;;;;;5024744;28;20176;-58
2022/03/20 05:37:26;;;;;;;2.55;1.10;;;3.70;99.90;;;;;;5003852;28;20078;-58
2022/03/20 05:39:53;;;;;;;2.92;1.63;;;3.70;99.90;;;;;;5017846;28;20096;-58
2022/03/20 05:42:20;;;;;;;2.17;1.15;;;3.80;99.90;;;;;;5026017;28;20041;-59
2022/03/20 05:44:46;;;;;;;2.30;1.23;;;3.70;99.90;;;;;;5024139;28;20077;-58
2022/03/20 05:47:13;;;;;;;2.22;1.10;;;3.70;99.90;;;;;;5025335;28;20141;-59
2022/03/20 05:49:40;;;;;;;2.22;1.20;;;3.70;99.90;;;;;;5020563;28;20068;-58
2022/03/20 05:52:07;;;;;;;2.90;1.15;;;3.60;99.90;;;;;;5021679;28;20049;-56
2022/03/20 05:54:34;;;;;;;1.75;0.90;;;3.60;99.90;;;;;;5021144;28;20129;-58
2022/03/20 05:59:46;;;;;;;2.38;1.05;;;3.60;99.90;;;;;;5023130;28;20050;-59
2022/03/20 06:02:13;;;;;;;3.38;1.52;;;3.60;99.90;;;;;;5021168;28;20220;-59
2022/03/20 06:04:40;;;;;;;3.55;1.40;;;3.60;99.90;;;;;;5007425;28;20151;-59
2022/03/20 06:07:08;;;;;;;3.75;1.17;;;3.50;99.90;;;;;;5007678;28;20159;-59
2022/03/20 06:09:36;;;;;;;2.28;1.38;;;3.50;99.90;;;;;;5019715;28;20369;-59
2022/03/20 06:12:03;;;;;;;3.38;1.70;;;3.50;99.90;;;;;;5023206;28;20137;-59
2022/03/20 06:14:30;;;;;;;3.00;1.27;;;3.50;99.90;;;;;;5017873;28;20555;-59
2022/03/20 06:16:58;;;;;;;2.25;1.13;;;3.60;99.90;;;;;;5025487;28;20086;-59
2022/03/20 06:19:25;;;;;;;1.77;1.10;;;3.50;99.90;;;;;;5023658;28;20911;-59
2022/03/20 06:21:52;;;;;;;3.25;1.25;;;3.50;99.90;;;;;;5023651;28;20052;-58
2022/03/20 06:24:19;;;;;;;2.40;1.38;;;3.50;99.90;;;;;;5021856;28;20161;-58
2022/03/20 06:26:45;;;;;;;2.70;1.17;;;3.50;99.90;;;;;;5020689;28;20333;-59
2022/03/20 06:29:12;;;;;;;3.25;1.52;;;3.50;99.90;;;;;;5021984;28;20191;-59
2022/03/20 06:31:39;;;;;;;3.35;2.00;;;3.50;99.90;;;;;;5021873;28;20439;-59
2022/03/20 06:34:06;;;;;;;4.38;1.55;;;3.60;99.90;;;;;;5021147;28;20439;-59
2022/03/20 06:36:33;;;;;;;2.45;1.20;;;3.60;99.90;;;;;;5020942;28;20548;-58
2022/03/20 06:38:59;;;;;;;2.17;1.20;;;3.60;99.90;;;;;;5033058;28;20155;-58
2022/03/20 06:41:26;;;;;;;3.63;1.30;;;3.70;99.90;;;;;;5008284;28;20136;-59
2022/03/20 06:43:53;;;;;;;3.00;1.23;;;3.70;99.90;;;;;;5023322;28;20077;-58
2022/03/20 06:46:21;;;;;;;1.67;1.15;;;3.70;99.90;;;;;;5024814;28;20475;-58
2022/03/20 06:48:53;;;;;;;1.80;1.27;;;3.80;99.90;;;;;;5023225;28;20046;-59
2022/03/20 06:51:22;;;;;;;2.45;1.50;;;3.80;99.90;;;;;;5020889;28;20829;-59
2022/03/20 06:53:50;;;;;;;2.50;1.48;;;3.80;99.90;;;;;;5019501;28;20123;-59
2022/03/20 06:56:17;;;;;;;2.05;1.40;;;3.80;99.90;;;;;;5020850;28;20057;-59
2022/03/20 06:58:44;;;;;;;1.55;1.10;;;3.90;99.90;;;;;;5024076;28;20182;-59
2022/03/20 07:01:10;;;;;;;3.03;1.60;;;3.90;99.90;;;;;;5022307;28;20056;-59
2022/03/20 07:03:39;;;;;;;3.67;1.77;;;3.90;99.90;;;;;;5021187;28;20053;-58
2022/03/20 07:06:05;;;;;;;3.17;1.77;;;4.00;99.90;;;;;;5018574;28;20115;-59
2022/03/20 07:08:32;;;;;;;3.55;1.85;;;4.00;99.90;;;;;;5024009;28;20140;-59
2022/03/20 07:10:59;;;;;;;3.90;2.30;;;4.00;99.90;;;;;;5023756;28;20090;-59
2022/03/20 07:16:14;;;;;;;13.95;7.88;;;4.10;99.90;;;;;;5007068;28;20104;-59
2022/03/20 07:18:45;;;;;;;18.77;9.35;;;4.20;99.90;;;;;;5015710;28;20041;-59
2022/03/20 07:21:18;;;;;;;22.67;9.35;;;4.30;99.90;;;;;;5014306;28;20060;-59
2022/03/20 07:23:45;;;;;;;19.52;9.93;;;4.40;99.90;;;;;;5015802;28;20128;-59
2022/03/20 07:31:45;;;;;;;13.98;6.30;;;4.50;99.90;;;;;;5017240;28;20060;-59
2022/03/20 07:34:14;;;;;;;12.60;6.28;;;4.60;99.90;;;;;;5016547;28;20049;-59
2022/03/20 07:36:40;;;;;;;10.95;5.13;;;4.70;99.90;;;;;;5017137;28;20144;-59
2022/03/20 07:39:08;;;;;;;9.05;5.13;;;4.70;99.90;;;;;;4997507;28;20308;-60
2022/03/20 07:41:34;;;;;;;8.30;5.00;;;4.80;99.90;;;;;;5017358;28;20136;-59
2022/03/20 07:44:01;;;;;;;8.00;4.35;;;4.90;99.90;;;;;;5017817;28;20540;-59
2022/03/20 07:46:28;;;;;;;8.20;3.47;;;5.00;99.90;;;;;;5020432;28;20072;-58
2022/03/20 07:48:54;;;;;;;5.40;3.00;;;5.10;99.90;;;;;;5021314;28;20055;-60
2022/03/20 07:51:21;;;;;;;4.75;2.42;;;5.10;99.90;;;;;;5020090;28;20458;-60
2022/03/20 07:53:50;;;;;;;4.93;2.65;;;5.20;99.90;;;;;;5020883;28;20148;-58
2022/03/20 07:56:21;;;;;;;3.63;2.25;;;5.30;99.90;;;;;;5020367;28;20160;-59
2022/03/20 07:58:49;;;;;;;4.28;2.03;;;5.30;99.90;;;;;;5021554;28;20386;-59
2022/03/20 08:01:15;;;;;;;3.80;2.00;;;5.40;99.90;;;;;;5020857;28;20140;-59
2022/03/20 08:03:48;;;;;;;5.07;2.17;;;5.40;99.90;;;;;;5020273;28;20053;-59
2022/03/20 08:06:15;;;;;;;4.95;2.78;;;5.50;99.90;;;;;;5020004;28;20073;-58
2022/03/20 08:08:43;;;;;;;5.05;1.88;;;5.50;99.90;;;;;;5020021;28;20244;-59
2022/03/20 08:11:09;;;;;;;3.72;1.80;;;5.60;99.90;;;;;;5021050;28;20451;-59
2022/03/20 08:13:36;;;;;;;4.70;1.90;;;5.60;99.90;;;;;;5020962;28;20056;-58
2022/03/20 08:16:04;;;;;;;2.13;1.60;;;5.70;99.90;;;;;;5015503;28;20535;-59
2022/03/20 08:18:31;;;;;;;3.05;1.80;;;5.80;99.90;;;;;;5021132;28;20065;-59
2022/03/20 08:20:58;;;;;;;3.95;2.20;;;5.90;99.90;;;;;;5010173;28;20290;-59
2022/03/20 08:23:24;;;;;;;3.28;1.92;;;6.00;99.90;;;;;;5019855;28;20448;-59
2022/03/20 08:25:51;;;;;;;2.72;1.88;;;6.20;99.90;;;;;;5019054;28;20067;-59
2022/03/20 08:28:18;;;;;;;3.22;2.00;;;6.40;99.90;;;;;;5018686;28;20919;-59
2022/03/20 08:30:45;;;;;;;4.40;2.78;;;6.50;99.90;;;;;;5015977;28;20085;-60
2022/03/20 08:33:15;;;;;;;5.43;2.63;;;6.50;99.90;;;;;;5019957;28;20076;-59
2022/03/20 08:35:42;;;;;;;3.90;2.40;;;6.50;99.90;;;;;;5011541;28;20136;-58
2022/03/20 08:38:10;;;;;;;5.75;2.28;;;6.50;99.90;;;;;;5010749;28;20096;-59
2022/03/20 08:40:39;;;;;;;5.57;2.85;;;6.60;99.90;;;;;;5009168;28;20056;-59
2022/03/20 08:43:08;;;;;;;6.28;3.65;;;6.60;99.90;;;;;;5017852;28;20079;-59
2022/03/20 08:45:35;;;;;;;4.35;2.63;;;6.60;99.90;;;;;;5015457;28;20139;-58
2022/03/20 08:48:01;;;;;;;5.55;3.05;;;6.70;99.90;;;;;;5016612;28;20045;-59
2022/03/20 08:50:28;;;;;;;3.70;2.63;;;6.70;99.90;;;;;;5014950;28;20145;-58
2022/03/20 08:52:55;;;;;;;4.03;2.50;;;6.90;99.90;;;;;;5010746;28;20120;-58
2022/03/20 08:55:22;;;;;;;4.15;2.80;;;7.00;99.90;;;;;;5012221;28;20085;-58
2022/03/20 08:57:52;;;;;;;6.80;3.40;;;7.00;99.90;;;;;;5014437;28;20161;-58
2022/03/20 09:00:19;;;;;;;5.57;3.20;;;7.10;99.90;;;;;;5011451;28;20517;-59
2022/03/20 09:02:47;;;;;;;6.28;3.88;;;7.10;99.90;;;;;;5007787;28;20050;-59
2022/03/20 09:05:14;;;;;;;6.70;3.92;;;7.10;99.90;;;;;;5010507;28;20053;-59
2022/03/20 09:07:41;;;;;;;6.07;4.43;;;7.20;99.90;;;;;;5010741;28;20073;-59
2022/03/20 09:10:08;;;;;;;8.93;5.10;;;7.20;99.90;;;;;;5014572;28;20529;-59
2022/03/20 09:12:35;;;;;;;6.72;4.60;;;7.30;99.90;;;;;;5012199;28;20049;-59
2022/03/20 09:15:03;;;;;;;6.70;5.25;;;7.30;99.90;;;;;;5006644;28;20136;-59
2022/03/20 09:20:16;;;;;;;7.43;5.47;;;7.40;99.90;;;;;;5002096;28;20387;-59
2022/03/20 09:22:44;;;;;;;8.02;6.72;;;7.50;99.90;;;;;;5000957;28;20053;-59
2022/03/20 09:25:11;;;;;;;9.65;6.68;;;7.50;99.90;;;;;;5010183;28;20151;-59
2022/03/20 09:27:38;;;;;;;7.20;5.03;;;7.60;99.90;;;;;;5014233;28;20061;-59
2022/03/20 09:30:05;;;;;;;9.27;5.85;;;7.60;99.90;;;;;;5026178;28;20057;-59
2022/03/20 09:32:32;;;;;;;7.10;5.13;;;7.70;99.90;;;;;;5002822;28;20072;-58
2022/03/20 09:34:59;;;;;;;7.18;4.60;;;7.70;99.90;;;;;;5013180;28;20053;-59
2022/03/20 09:37:26;;;;;;;5.57;4.55;;;7.80;99.90;;;;;;5014149;28;20158;-59
2022/03/20 09:39:53;;;;;;;6.10;5.45;;;7.90;99.90;;;;;;5010991;28;20300;-59
2022/03/20 09:42:20;;;;;;;7.35;6.00;;;8.00;99.90;;;;;;5007750;28;20056;-59
2022/03/20 09:44:49;;;;;;;8.25;5.75;;;8.10;99.90;;;;;;5007406;28;20405;-59
2022/03/20 09:47:17;;;;;;;6.97;5.25;;;8.20;99.90;;;;;;5010143;28;20144;-58
2022/03/20 09:49:46;;;;;;;7.28;5.97;;;8.30;99.90;;;;;;5002965;28;20052;-59
2022/03/20 09:52:13;;;;;;;7.15;5.43;;;8.40;99.90;;;;;;5009291;28;20144;-60
2022/03/20 09:54:40;;;;;;;7.95;6.25;;;8.50;99.90;;;;;;5012010;28;20207;-60
2022/03/20 09:57:08;;;;;;;7.90;6.85;;;8.50;99.90;;;;;;5014316;28;20085;-60
2022/03/20 09:59:36;;;;;;;7.90;6.65;;;8.60;99.90;;;;;;5010770;28;20045;-60
2022/03/20 10:02:07;;;;;;;7.88;6.18;;;8.60;99.90;;;;;;5007470;28;20049;-60
2022/03/20 10:04:51;;;;;;;7.45;6.70;;;8.70;99.90;;;;;;5009402;28;20289;-59
2022/03/20 10:07:45;;;;;;;7.25;5.50;;;8.80;99.90;;;;;;5007517;28;20041;-60
2022/03/20 10:10:17;;;;;;;6.80;5.72;;;8.90;99.90;;;;;;4999484;28;20132;-60
2022/03/20 10:12:47;;;;;;;9.82;7.38;;;9.00;99.90;;;;;;5005333;28;20053;-59
2022/03/20 10:15:34;;;;;;;10.38;9.35;;;9.10;99.90;;;;;;5011562;28;20053;-60
2022/03/20 10:18:06;;;;;;;9.18;8.07;;;9.20;99.90;;;;;;5013851;28;20444;-59
2022/03/20 10:20:47;;;;;;;9.55;8.55;;;9.30;99.90;;;;;;5011044;28;20156;-59
2022/03/20 10:23:46;;;;;;;8.95;7.88;;;9.50;99.90;;;;;;5017673;28;20061;-59
2022/03/20 10:26:17;;;;;;;9.20;8.05;;;9.70;99.90;;;;;;4970623;28;20430;-60
2022/03/20 10:28:50;;;;;;;9.93;7.93;;;9.80;99.90;;;;;;4994127;28;20046;-59
2022/03/20 10:31:20;;;;;;;10.82;8.05;;;9.90;99.90;;;;;;4992685;28;20458;-59
2022/03/20 10:33:59;;;;;;;7.75;6.82;;;10.00;99.90;;;;;;4992751;28;20122;-61
2022/03/20 10:36:26;;;;;;;9.43;8.32;;;10.10;99.90;;;;;;4992164;28;20060;-59
2022/03/20 10:38:53;;;;;;;10.13;8.43;;;10.10;99.90;;;;;;4999751;28;20128;-60
2022/03/20 10:41:28;;;;;;;8.65;7.75;;;10.20;99.90;;;;;;5011535;28;20148;-60
2022/03/20 10:43:55;;;;;;;8.98;7.38;;;10.50;99.90;;;;;;5013512;28;20466;-61
2022/03/20 10:46:26;;;;;;;10.93;8.85;;;10.80;99.90;;;;;;5012869;28;20448;-59
2022/03/20 10:48:54;;;;;;;9.30;8.38;;;10.90;99.90;;;;;;5012109;28;20128;-60
2022/03/20 10:51:41;;;;;;;9.07;8.20;;;11.00;99.90;;;;;;5001745;28;20338;-59
2022/03/20 10:54:15;;;;;;;10.93;8.20;;;10.90;99.90;;;;;;5000017;28;20073;-59
2022/03/20 10:56:59;;;;;;;9.55;8.57;;;10.70;99.90;;;;;;5007884;28;20260;-59
2022/03/20 10:59:26;;;;;;;10.15;8.75;;;10.70;99.90;;;;;;5014115;28;20151;-60
2022/03/20 11:01:53;;;;;;;11.45;8.35;;;10.70;99.90;;;;;;5014202;28;20139;-60
2022/03/20 11:04:21;;;;;;;11.32;9.27;;;10.50;99.90;;;;;;5011212;28;20467;-59
2022/03/20 11:06:59;;;;;;;8.93;8.05;;;10.40;99.90;;;;;;5010050;28;21121;-60
2022/03/20 11:09:27;;;;;;;10.93;9.32;;;10.40;99.90;;;;;;5013426;28;20128;-60
2022/03/20 11:11:54;;;;;;;10.38;9.23;;;10.50;99.90;;;;;;5017413;28;20176;-59
2022/03/20 11:14:22;;;;;;;11.20;10.07;;;10.50;99.90;;;;;;5016949;28;20453;-60
2022/03/20 11:17:01;;;;;;;9.80;8.55;;;10.60;99.90;;;;;;5017201;28;20092;-60
2022/03/20 11:19:30;;;;;;;10.32;9.32;;;10.80;99.90;;;;;;5014942;28;20064;-60
2022/03/20 11:22:04;;;;;;;9.45;8.45;;;10.90;99.10;;;;;;5008956;28;20061;-60
2022/03/20 11:24:31;;;;;;;10.02;9.13;;;11.10;97.50;;;;;;5018380;28;20470;-60
2022/03/20 11:27:01;;;;;;;9.88;8.80;;;11.10;96.50;;;;;;5017923;28;20124;-60
2022/03/20 11:29:30;;;;;;;9.25;8.25;;;11.20;96.10;;;;;;5019590;28;20421;-60
2022/03/20 11:31:59;;;;;;;10.32;9.23;;;11.40;97.10;;;;;;5019315;28;20132;-60
2022/03/20 11:34:27;;;;;;;11.35;10.25;;;11.50;96.30;;;;;;5016415;28;20064;-60
2022/03/20 11:37:05;;;;;;;13.27;10.90;;;11.50;99.10;;;;;;5000826;28;20576;-60
2022/03/20 11:39:32;;;;;;;12.65;11.35;;;11.50;99.30;;;;;;5018129;28;20243;-60
2022/03/20 11:42:28;;;;;;;11.98;10.75;;;11.50;98.50;;;;;;5017306;28;20141;-60
2022/03/20 11:45:00;;;;;;;14.00;9.43;;;11.40;99.00;;;;;;5018654;28;20136;-61
2022/03/20 11:47:29;;;;;;;12.80;11.55;;;11.30;99.10;;;;;;5019152;28;20180;-60
2022/03/20 11:50:16;;;;;;;12.52;11.27;;;11.20;99.90;;;;;;5018364;28;20286;-60
2022/03/20 11:52:46;;;;;;;12.88;11.63;;;11.00;99.90;;;;;;5018338;28;20160;-60
2022/03/20 11:55:33;;;;;;;15.57;13.93;;;11.20;99.90;;;;;;5018306;28;20128;-60
2022/03/20 11:58:05;;;;;;;14.70;13.20;;;11.50;99.90;;;;;;5017664;28;20060;-60
2022/03/20 12:00:33;;;;;;;14.90;13.40;;;11.70;99.90;;;;;;5017608;28;20115;-60
2022/03/20 12:03:15;;;;;;;13.68;11.98;;;11.90;99.90;;;;;;5018404;28;20067;-60
2022/03/20 12:06:01;;;;;;;12.50;10.75;;;12.00;99.90;;;;;;5017361;28;20295;-60
2022/03/20 12:09:11;;;;;;;12.68;10.68;;;12.10;99.90;;;;;;5018467;28;20072;-59
2022/03/20 12:12:08;;;;;;;10.32;9.10;;;12.20;99.00;;;;;;4975529;28;20240;-60
2022/03/20 12:14:41;;;;;;;10.30;9.23;;;12.40;98.50;;;;;;4976133;28;20117;-60
2022/03/20 12:17:08;;;;;;;12.15;9.63;;;12.60;98.30;;;;;;5005367;28;20049;-59
2022/03/20 12:19:42;;;;;;;11.25;9.90;;;12.80;98.50;;;;;;5017429;28;20369;-60
2022/03/20 12:22:18;;;;;;;9.50;8.40;;;12.90;97.60;;;;;;5018097;28;20111;-60
2022/03/20 12:24:51;;;;;;;8.82;7.97;;;13.00;97.20;;;;;;5017234;28;20680;-59
2022/03/20 12:27:24;;;;;;;9.60;8.60;;;13.20;97.50;;;;;;5018922;28;20050;-60
2022/03/20 12:30:07;;;;;;;9.38;8.48;;;12.90;96.90;;;;;;5017970;28;20081;-60
2022/03/20 12:32:46;;;;;;;9.90;8.98;;;12.60;97.40;;;;;;5017479;28;20374;-59
2022/03/20 12:35:17;;;;;;;8.93;8.07;;;12.80;95.10;;;;;;5017130;28;20045;-59
2022/03/20 12:37:44;;;;;;;9.02;8.13;;;13.00;95.60;;;;;;5017798;28;20076;-59
2022/03/20 12:40:18;;;;;;;9.10;7.88;;;13.50;95.40;;;;;;5017539;28;20666;-60
2022/03/20 12:43:10;;;;;;;9.13;8.23;;;13.90;95.00;;;;;;5017084;28;20412;-59
2022/03/20 12:45:46;;;;;;;8.23;7.35;;;14.40;93.80;;;;;;5017636;28;20412;-63
2022/03/20 12:48:15;;;;;;;9.40;8.48;;;14.70;92.70;;;;;;5016282;28;20233;-59
2022/03/20 12:50:44;;;;;;;7.80;7.00;;;14.90;91.50;;;;;;5016627;28;20538;-60
2022/03/20 12:53:15;;;;;;;7.43;6.55;;;15.50;90.90;;;;;;5017174;28;20081;-60
2022/03/20 12:55:54;;;;;;;8.15;7.35;;;15.80;90.30;;;;;;5012627;28;20126;-60
2022/03/20 12:58:21;;;;;;;7.03;6.32;;;16.00;88.10;;;;;;5017801;28;20076;-60
2022/03/20 13:00:47;;;;;;;6.63;6.03;;;16.50;87.00;;;;;;5017327;28;20133;-59
2022/03/20 13:03:17;;;;;;;6.68;6.07;;;16.80;82.30;;;;;;5017000;28;20057;-60
2022/03/20 13:05:48;;;;;;;6.45;5.85;;;16.80;77.10;;;;;;5016585;28;20045;-60
2022/03/20 13:08:26;;;;;;;7.53;6.35;;;17.20;75.40;;;;;;5016212;28;20053;-61
2022/03/20 13:10:55;;;;;;;8.25;5.97;;;17.60;74.70;;;;;;5016911;28;20065;-60
2022/03/20 13:13:36;;;;;;;6.63;6.03;;;18.10;71.20;;;;;;5014737;28;20160;-61
2022/03/20 13:16:03;;;;;;;5.57;5.07;;;18.30;69.50;;;;;;5016625;28;20050;-61
2022/03/20 13:18:31;;;;;;;5.75;5.20;;;18.50;61.00;;;;;;5016574;28;20053;-61
2022/03/20 13:21:03;;;;;;;5.85;5.22;;;18.80;63.40;;;;;;5015939;28;20261;-60
2022/03/20 13:23:30;;;;;;;5.78;5.28;;;19.00;63.10;;;;;;5015584;28;20057;-60
2022/03/20 13:25:57;;;;;;;7.20;5.85;;;18.70;62.00;;;;;;5014715;28;20077;-60
2022/03/20 13:28:34;;;;;;;7.07;6.38;;;18.50;63.50;;;;;;5014697;28;20406;-60
2022/03/20 13:31:11;;;;;;;6.35;5.75;;;18.20;64.00;;;;;;5006284;28;20444;-60
2022/03/20 13:33:40;;;;;;;6.38;5.78;;;18.10;63.00;;;;;;5004681;28;20115;-61
2022/03/20 13:36:08;;;;;;;6.90;6.28;;;18.30;61.80;;;;;;4995023;28;20050;-61
2022/03/20 13:38:43;;;;;;;6.50;5.78;;;18.20;61.90;;;;;;4997033;28;20504;-61
2022/03/20 13:41:11;;;;;;;6.72;5.85;;;18.20;63.70;;;;;;4995160;28;20245;-60